Time;durP1;ratioP1;P1;durP2;ratioP2;P2;SDS_P1;SDS_P2;PMS_P1;PMS_P2;Temp;Humidity;BMP_temperature;BMP_pressure;BME280_temperature;BME280_humidity;BME280_pressure;Samples;Min_cycle;Max_cycle;Signal;HPM_P1;HPM_P2
2023/08/30 00:01:49;;;;;;;15.18;13.85;;;12.40;91.60;;;;;;5054988;28;20105;-74
2023/08/30 00:04:14;;;;;;;15.57;14.18;;;12.40;91.40;;;;;;5054872;28;20025;-73
2023/08/30 00:06:40;;;;;;;13.65;12.30;;;12.40;91.50;;;;;;5054484;28;20383;-74
2023/08/30 00:09:05;;;;;;;14.48;13.10;;;12.30;91.60;;;;;;5054200;28;20032;-74
2023/08/30 00:11:32;;;;;;;16.13;14.68;;;12.30;91.80;;;;;;5052696;28;20039;-75
2023/08/30 00:14:05;;;;;;;14.68;13.18;;;12.30;91.80;;;;;;5054230;28;20032;-76
2023/08/30 00:16:32;;;;;;;15.13;13.75;;;12.30;91.80;;;;;;5054342;28;20021;-76
2023/08/30 00:18:57;;;;;;;14.93;13.52;;;12.30;91.70;;;;;;5054237;28;20024;-74
2023/08/30 00:21:23;;;;;;;15.82;14.43;;;12.30;91.80;;;;;;5054283;28;20025;-74
2023/08/30 00:23:48;;;;;;;14.32;13.07;;;12.30;91.80;;;;;;5054014;28;20036;-75
2023/08/30 00:26:14;;;;;;;14.20;12.90;;;12.30;91.90;;;;;;5052763;28;20082;-75
2023/08/30 00:28:39;;;;;;;15.40;13.77;;;12.30;91.70;;;;;;5052728;28;20069;-74
2023/08/30 00:31:05;;;;;;;14.80;13.35;;;12.30;91.60;;;;;;5054364;28;20025;-74
2023/08/30 00:33:31;;;;;;;14.13;12.82;;;12.30;91.50;;;;;;5054144;28;20055;-74
2023/08/30 00:36:00;;;;;;;15.13;12.30;;;12.30;91.50;;;;;;5054182;28;20021;-75
2023/08/30 00:38:29;;;;;;;13.90;12.30;;;12.30;91.60;;;;;;5054329;28;20021;-77
2023/08/30 00:40:55;;;;;;;13.02;11.90;;;12.30;91.50;;;;;;5054246;28;20017;-76
2023/08/30 00:43:21;;;;;;;12.90;11.70;;;12.30;91.50;;;;;;5053997;28;20427;-76
2023/08/30 00:45:47;;;;;;;12.35;11.25;;;12.30;91.40;;;;;;5054120;28;20067;-76
2023/08/30 00:48:15;;;;;;;14.85;13.15;;;12.40;91.40;;;;;;5054084;28;20494;-75
2023/08/30 00:50:41;;;;;;;13.93;12.70;;;12.40;91.30;;;;;;5053991;28;20471;-76
2023/08/30 00:53:08;;;;;;;14.25;12.77;;;12.40;91.40;;;;;;5054024;28;20025;-76
2023/08/30 00:55:37;;;;;;;14.75;13.30;;;12.30;91.20;;;;;;5053903;28;20021;-76
2023/08/30 00:58:03;;;;;;;14.32;13.02;;;12.30;91.20;;;;;;5053926;28;20028;-76
2023/08/30 01:00:32;;;;;;;16.42;14.77;;;12.30;91.30;;;;;;5053921;28;20039;-77
2023/08/30 01:02:58;;;;;;;15.48;14.07;;;12.30;91.40;;;;;;5053880;28;20060;-76
2023/08/30 01:05:24;;;;;;;15.00;13.48;;;12.20;91.50;;;;;;5053765;28;20052;-76
2023/08/30 01:07:50;;;;;;;15.30;13.80;;;12.20;91.40;;;;;;5053594;28;20069;-75
2023/08/30 01:10:16;;;;;;;15.77;14.38;;;12.20;91.40;;;;;;5052612;28;20082;-75
2023/08/30 01:12:49;;;;;;;15.10;13.63;;;12.20;91.40;;;;;;5053619;28;20033;-75
2023/08/30 01:15:19;;;;;;;14.55;13.13;;;12.20;91.50;;;;;;5053578;28;20028;-75
2023/08/30 01:17:48;;;;;;;14.48;12.98;;;12.20;91.50;;;;;;5053500;28;20032;-74
2023/08/30 01:20:17;;;;;;;12.73;11.63;;;12.20;91.40;;;;;;5053388;28;20017;-75
2023/08/30 01:23:13;;;;;;;15.00;13.50;;;12.10;91.40;;;;;;5053297;28;20025;-74
2023/08/30 01:25:57;;;;;;;14.57;13.07;;;12.10;91.40;;;;;;5053447;28;20208;-75
2023/08/30 01:28:24;;;;;;;13.15;11.77;;;12.10;91.50;;;;;;5052980;28;20060;-74
2023/08/30 01:30:54;;;;;;;12.30;11.10;;;12.10;91.60;;;;;;5053289;28;20414;-74
2023/08/30 01:33:20;;;;;;;14.60;13.10;;;12.10;91.60;;;;;;5053234;28;20021;-74
2023/08/30 01:35:47;;;;;;;13.77;12.40;;;12.10;91.50;;;;;;5053113;28;20025;-75
2023/08/30 01:38:14;;;;;;;13.80;12.50;;;12.10;91.50;;;;;;5052655;28;20085;-75
2023/08/30 01:40:42;;;;;;;13.38;12.15;;;12.10;91.50;;;;;;5053092;28;20033;-75
2023/08/30 01:43:09;;;;;;;12.65;11.43;;;12.10;91.50;;;;;;5051752;28;20383;-75
2023/08/30 01:45:41;;;;;;;12.50;11.20;;;12.10;91.50;;;;;;5053017;28;20017;-75
2023/08/30 01:48:10;;;;;;;12.63;11.52;;;12.10;91.50;;;;;;5053108;28;20029;-75
2023/08/30 01:50:36;;;;;;;12.25;11.00;;;12.10;91.40;;;;;;5053009;28;20106;-75
2023/08/30 01:53:02;;;;;;;11.38;10.30;;;12.00;91.20;;;;;;5052962;28;20024;-74
2023/08/30 01:55:29;;;;;;;11.90;10.70;;;12.00;91.10;;;;;;5052754;28;20021;-74
2023/08/30 01:57:55;;;;;;;10.73;9.75;;;12.00;90.90;;;;;;5052627;28;20057;-75
2023/08/30 02:00:20;;;;;;;12.63;11.43;;;12.00;90.90;;;;;;5052657;28;20091;-76
2023/08/30 02:02:47;;;;;;;12.65;11.38;;;12.00;90.80;;;;;;5052561;28;20024;-76
2023/08/30 02:05:13;;;;;;;11.88;10.73;;;12.00;90.80;;;;;;5052668;28;20028;-76
2023/08/30 02:07:47;;;;;;;11.15;10.05;;;11.90;90.90;;;;;;5052642;28;20398;-76
2023/08/30 02:10:21;;;;;;;11.98;10.80;;;11.90;91.10;;;;;;5052591;28;20789;-76
2023/08/30 02:12:48;;;;;;;11.63;10.45;;;11.90;91.00;;;;;;5052585;28;20064;-76
2023/08/30 02:15:17;;;;;;;10.38;9.48;;;11.80;91.00;;;;;;5052620;28;20426;-76
2023/08/30 02:17:43;;;;;;;10.75;9.70;;;11.80;91.10;;;;;;5052574;28;20017;-76
2023/08/30 02:20:09;;;;;;;9.95;9.05;;;11.80;91.30;;;;;;5052642;28;20022;-76
2023/08/30 02:22:35;;;;;;;10.93;9.38;;;11.70;91.10;;;;;;5052517;28;20079;-76
2023/08/30 02:25:04;;;;;;;11.05;9.77;;;11.70;91.20;;;;;;5052460;28;20033;-76
2023/08/30 02:27:33;;;;;;;10.43;9.43;;;11.60;91.00;;;;;;5052209;28;20056;-76
2023/08/30 02:29:58;;;;;;;9.88;8.95;;;11.60;91.10;;;;;;5052476;28;20033;-76
2023/08/30 02:32:24;;;;;;;9.68;8.80;;;11.60;91.00;;;;;;5052544;28;20048;-75
2023/08/30 02:34:52;;;;;;;10.60;9.60;;;11.70;91.10;;;;;;5052294;28;20100;-76
2023/08/30 02:37:18;;;;;;;10.25;9.15;;;11.70;90.80;;;;;;5052405;28;20039;-76
2023/08/30 02:39:44;;;;;;;8.80;8.00;;;11.60;90.80;;;;;;5052345;28;20021;-75
2023/08/30 02:42:10;;;;;;;10.82;9.27;;;11.50;90.80;;;;;;5052069;28;20582;-76
2023/08/30 02:44:35;;;;;;;10.00;8.98;;;11.50;90.90;;;;;;5052297;28;20017;-76
2023/08/30 02:47:01;;;;;;;10.90;8.95;;;11.50;90.90;;;;;;5052191;28;20032;-76
2023/08/30 02:49:26;;;;;;;9.48;8.57;;;11.60;91.00;;;;;;5052926;28;20371;-75
2023/08/30 02:51:52;;;;;;;10.40;9.40;;;11.60;90.80;;;;;;5056094;28;20037;-75
2023/08/30 02:54:18;;;;;;;9.63;8.68;;;11.60;90.80;;;;;;5056280;28;20021;-75
2023/08/30 02:56:44;;;;;;;10.40;9.40;;;11.60;90.80;;;;;;5058516;28;20375;-75
2023/08/30 02:59:10;;;;;;;10.63;9.52;;;11.50;90.70;;;;;;5076180;28;20029;-76
2023/08/30 03:01:36;;;;;;;12.50;10.50;;;11.50;90.60;;;;;;5062164;28;20024;-77
2023/08/30 03:04:04;;;;;;;11.10;10.10;;;11.50;90.70;;;;;;5056028;28;20052;-76
2023/08/30 03:06:30;;;;;;;13.00;11.70;;;11.50;90.70;;;;;;5054479;28;20560;-76
2023/08/30 03:08:55;;;;;;;12.10;10.85;;;11.50;90.60;;;;;;5056214;28;20025;-76
2023/08/30 03:11:21;;;;;;;13.35;12.15;;;11.40;90.70;;;;;;5055835;28;20391;-76
2023/08/30 03:13:46;;;;;;;15.27;12.32;;;11.40;91.00;;;;;;5056007;28;20053;-77
2023/08/30 03:16:16;;;;;;;13.70;12.40;;;11.40;92.10;;;;;;5055894;28;20021;-76
2023/08/30 03:18:42;;;;;;;11.02;9.88;;;11.30;91.40;;;;;;5055836;28;20025;-76
2023/08/30 03:21:09;;;;;;;12.07;10.88;;;11.40;91.40;;;;;;5055688;28;20021;-77
2023/08/30 03:23:35;;;;;;;13.05;10.88;;;11.40;91.30;;;;;;5055719;28;20040;-75
2023/08/30 03:26:08;;;;;;;13.32;11.93;;;11.30;91.40;;;;;;5055586;28;20048;-75
2023/08/30 03:28:33;;;;;;;11.00;9.60;;;11.30;91.40;;;;;;5055380;28;20051;-75
2023/08/30 03:30:59;;;;;;;12.38;11.27;;;11.40;91.50;;;;;;5055556;28;20024;-76
2023/08/30 03:33:24;;;;;;;12.38;11.25;;;11.30;91.40;;;;;;5055452;28;20017;-76
2023/08/30 03:35:50;;;;;;;11.93;10.70;;;11.30;91.50;;;;;;5055602;28;20071;-75
2023/08/30 03:38:15;;;;;;;11.13;10.05;;;11.30;91.50;;;;;;5055380;28;20033;-77
2023/08/30 03:40:41;;;;;;;12.45;9.52;;;11.30;91.20;;;;;;5055594;28;20025;-76
2023/08/30 03:43:07;;;;;;;9.98;8.98;;;11.30;90.90;;;;;;5055295;28;20029;-76
2023/08/30 03:45:36;;;;;;;9.45;8.63;;;11.30;90.90;;;;;;5055073;28;20434;-77
2023/08/30 03:48:03;;;;;;;8.98;8.07;;;11.20;90.80;;;;;;5055076;28;20111;-77
2023/08/30 03:50:29;;;;;;;8.68;7.88;;;11.20;90.70;;;;;;5055175;28;20101;-77
2023/08/30 03:52:54;;;;;;;9.07;8.27;;;11.20;90.70;;;;;;5055076;28;20108;-74
2023/08/30 03:55:21;;;;;;;9.35;8.55;;;11.20;90.60;;;;;;5055078;28;20025;-76
2023/08/30 03:57:46;;;;;;;9.63;8.63;;;11.20;90.70;;;;;;5053793;28;20029;-76
2023/08/30 04:00:12;;;;;;;9.80;8.90;;;11.30;91.00;;;;;;5054668;28;20028;-76
2023/08/30 04:02:37;;;;;;;10.68;9.52;;;11.20;90.80;;;;;;5054813;28;20032;-76
2023/08/30 04:05:08;;;;;;;11.68;10.52;;;11.20;91.00;;;;;;5054784;28;20044;-76
2023/08/30 04:07:33;;;;;;;13.77;12.52;;;11.20;91.10;;;;;;5054879;28;20383;-76
2023/08/30 04:09:59;;;;;;;13.60;12.20;;;11.20;92.00;;;;;;5054819;28;20029;-76
2023/08/30 04:12:24;;;;;;;14.25;12.85;;;11.20;91.50;;;;;;5054785;28;20029;-76
2023/08/30 04:14:50;;;;;;;13.75;12.15;;;11.20;91.50;;;;;;5053401;28;20489;-77
2023/08/30 04:17:15;;;;;;;14.30;12.70;;;11.10;91.50;;;;;;5054762;28;20036;-77
2023/08/30 04:19:41;;;;;;;12.38;10.57;;;11.10;91.50;;;;;;5054661;28;20032;-77
2023/08/30 04:22:06;;;;;;;15.05;11.50;;;11.10;91.50;;;;;;5054681;28;20025;-76
2023/08/30 04:24:32;;;;;;;13.93;12.52;;;11.10;91.30;;;;;;5054689;28;20029;-76
2023/08/30 04:26:57;;;;;;;13.90;12.48;;;11.10;91.40;;;;;;5054603;28;20076;-76
2023/08/30 04:29:23;;;;;;;15.38;12.95;;;11.00;91.40;;;;;;5054704;28;20060;-76
2023/08/30 04:31:48;;;;;;;16.85;13.63;;;11.00;91.40;;;;;;5053352;28;20024;-76
2023/08/30 04:34:16;;;;;;;15.68;13.27;;;11.00;91.40;;;;;;5054762;28;20025;-76
2023/08/30 04:36:41;;;;;;;13.88;11.77;;;11.00;91.60;;;;;;5054666;28;20631;-74
2023/08/30 04:39:07;;;;;;;12.93;11.32;;;11.00;91.70;;;;;;5054687;28;20032;-73
2023/08/30 04:41:33;;;;;;;12.05;10.55;;;11.00;91.50;;;;;;5055287;28;20036;-74
2023/08/30 04:43:59;;;;;;;11.65;10.48;;;11.00;91.40;;;;;;5060154;28;20013;-73
2023/08/30 04:46:24;;;;;;;11.05;9.93;;;10.90;91.60;;;;;;5054274;28;20025;-75
2023/08/30 04:48:50;;;;;;;9.63;8.63;;;10.90;91.60;;;;;;5052948;28;20028;-74
2023/08/30 04:51:15;;;;;;;10.18;9.00;;;10.90;91.50;;;;;;5054159;28;20071;-75
2023/08/30 04:53:42;;;;;;;12.13;10.45;;;10.90;91.30;;;;;;5053871;28;20037;-75
2023/08/30 04:56:14;;;;;;;11.18;10.02;;;10.90;91.10;;;;;;5054696;28;20379;-75
2023/08/30 04:58:39;;;;;;;12.18;10.88;;;10.90;91.30;;;;;;5054033;28;20017;-74
2023/08/30 05:01:05;;;;;;;12.80;10.75;;;11.00;91.20;;;;;;5054055;28;20478;-75
2023/08/30 05:03:30;;;;;;;15.57;13.25;;;10.90;91.20;;;;;;5054023;28;20021;-76
2023/08/30 05:05:56;;;;;;;14.50;12.68;;;10.90;91.40;;;;;;5052795;28;20112;-76
2023/08/30 05:08:22;;;;;;;14.98;13.40;;;10.90;91.60;;;;;;5053891;28;20497;-76
2023/08/30 05:10:48;;;;;;;15.80;14.07;;;10.90;91.60;;;;;;5053862;28;20017;-76
2023/08/30 05:13:16;;;;;;;17.40;14.30;;;11.00;91.60;;;;;;5053081;28;20082;-76
2023/08/30 05:15:42;;;;;;;16.98;15.18;;;11.00;91.60;;;;;;5053748;28;20025;-77
2023/08/30 05:18:07;;;;;;;16.30;14.20;;;11.00;91.70;;;;;;5053779;28;20036;-76
2023/08/30 05:20:33;;;;;;;18.73;14.93;;;11.10;91.80;;;;;;5053690;28;20040;-76
2023/08/30 05:23:17;;;;;;;16.45;13.52;;;11.10;91.50;;;;;;5053836;28;20017;-79
2023/08/30 05:25:42;;;;;;;16.10;14.38;;;11.10;91.50;;;;;;5053530;28;20123;-75
2023/08/30 05:28:08;;;;;;;15.63;12.30;;;11.20;91.40;;;;;;5053281;28;20044;-75
2023/08/30 05:30:33;;;;;;;15.63;14.05;;;11.20;91.20;;;;;;5053634;28;20029;-75
2023/08/30 05:32:59;;;;;;;14.57;13.18;;;11.30;90.80;;;;;;5053768;28;20047;-75
2023/08/30 05:35:24;;;;;;;17.27;13.13;;;11.30;90.80;;;;;;5053292;28;20021;-75
2023/08/30 05:37:50;;;;;;;18.33;14.23;;;11.30;90.80;;;;;;5053305;28;20055;-75
2023/08/30 05:40:17;;;;;;;14.82;13.32;;;11.30;90.70;;;;;;5053370;28;20025;-75
2023/08/30 05:42:42;;;;;;;15.18;13.77;;;11.20;90.60;;;;;;5053155;28;20025;-76
2023/08/30 05:45:08;;;;;;;14.93;13.40;;;11.30;91.60;;;;;;5052999;28;20066;-76
2023/08/30 05:47:34;;;;;;;16.52;12.57;;;11.30;90.80;;;;;;5053143;28;20033;-76
2023/08/30 05:49:59;;;;;;;13.85;11.98;;;11.40;90.70;;;;;;5053305;28;20028;-75
2023/08/30 05:52:25;;;;;;;13.60;11.63;;;11.40;90.60;;;;;;5053232;28;20406;-75
2023/08/30 05:54:51;;;;;;;16.80;12.23;;;11.50;90.50;;;;;;5053289;28;20025;-75
2023/08/30 05:57:16;;;;;;;12.25;10.77;;;11.60;90.00;;;;;;5053302;28;20021;-75
2023/08/30 05:59:42;;;;;;;12.68;11.38;;;11.60;89.80;;;;;;5053081;28;20029;-76
2023/08/30 06:02:07;;;;;;;13.75;11.05;;;11.70;89.70;;;;;;5051805;28;20028;-76
2023/08/30 06:04:33;;;;;;;10.32;9.43;;;11.80;89.30;;;;;;5057842;28;20039;-75
2023/08/30 06:06:58;;;;;;;10.48;9.48;;;11.80;88.70;;;;;;5053260;28;20078;-76
2023/08/30 06:09:24;;;;;;;11.52;10.40;;;11.90;88.60;;;;;;5057605;28;20097;-75
2023/08/30 06:11:49;;;;;;;13.25;9.10;;;11.90;88.20;;;;;;5051764;28;20037;-75
2023/08/30 06:14:15;;;;;;;9.50;8.50;;;12.00;88.10;;;;;;5052798;28;20439;-75
2023/08/30 06:16:44;;;;;;;12.00;8.85;;;12.00;87.50;;;;;;5052796;28;20107;-75
2023/08/30 06:19:10;;;;;;;9.70;8.80;;;12.10;87.80;;;;;;5052932;28;20057;-75
2023/08/30 06:21:36;;;;;;;9.07;8.13;;;12.20;87.00;;;;;;5052770;28;20063;-76
2023/08/30 06:24:01;;;;;;;10.80;8.48;;;12.20;87.10;;;;;;5052765;28;20391;-76
2023/08/30 06:26:27;;;;;;;9.15;8.25;;;12.10;87.30;;;;;;5052674;28;20463;-75
2023/08/30 06:28:52;;;;;;;9.50;6.63;;;12.10;87.60;;;;;;5052652;28;20078;-78
2023/08/30 06:31:18;;;;;;;6.00;5.50;;;12.10;88.50;;;;;;5052967;28;20544;-77
2023/08/30 06:33:44;;;;;;;7.60;5.47;;;12.10;89.10;;;;;;5052742;28;20025;-77
2023/08/30 06:36:11;;;;;;;6.95;5.75;;;12.10;88.70;;;;;;5051452;28;20021;-76
2023/08/30 06:38:37;;;;;;;6.50;5.90;;;12.20;88.30;;;;;;5052476;28;20021;-75
2023/08/30 06:41:02;;;;;;;8.75;6.00;;;12.30;88.20;;;;;;5052511;28;20363;-77
2023/08/30 06:43:28;;;;;;;5.57;5.03;;;12.30;88.60;;;;;;5052734;28;20029;-76
2023/08/30 06:45:53;;;;;;;5.80;5.30;;;12.20;87.40;;;;;;5052764;28;20112;-77
2023/08/30 06:48:19;;;;;;;5.18;4.78;;;12.40;87.20;;;;;;5052448;28;20029;-76
2023/08/30 06:50:44;;;;;;;6.35;5.75;;;12.50;87.10;;;;;;5052620;28;20021;-76
2023/08/30 06:53:10;;;;;;;6.80;6.20;;;12.70;86.60;;;;;;5052357;28;20104;-76
2023/08/30 06:55:36;;;;;;;6.93;4.97;;;12.80;85.00;;;;;;5052180;28;20105;-76
2023/08/30 06:58:02;;;;;;;4.53;4.22;;;13.00;85.10;;;;;;5052244;28;20024;-76
2023/08/30 07:00:28;;;;;;;6.22;4.43;;;13.10;84.70;;;;;;5052210;28;20017;-76
2023/08/30 07:02:53;;;;;;;4.07;3.67;;;13.30;84.20;;;;;;5051947;28;20071;-76
2023/08/30 07:05:19;;;;;;;4.82;3.83;;;13.50;83.60;;;;;;5052041;28;20037;-76
2023/08/30 07:07:45;;;;;;;6.30;5.70;;;13.80;82.30;;;;;;5052070;28;20072;-76
2023/08/30 07:10:10;;;;;;;8.43;7.03;;;13.90;81.20;;;;;;5052180;28;20017;-76
2023/08/30 07:12:36;;;;;;;9.10;8.20;;;14.00;81.50;;;;;;5052034;28;20471;-76
2023/08/30 07:15:03;;;;;;;9.15;8.20;;;14.10;81.20;;;;;;5051946;28;20112;-76
2023/08/30 07:17:29;;;;;;;9.15;8.25;;;14.00;81.70;;;;;;5052298;28;20108;-76
2023/08/30 07:19:54;;;;;;;22.70;8.90;;;14.10;81.90;;;;;;5054863;28;20049;-81
2023/08/30 07:22:20;;;;;;;8.27;7.47;;;14.40;85.80;;;;;;5055994;28;20359;-80
2023/08/30 07:24:46;;;;;;;9.07;7.40;;;14.50;82.50;;;;;;5054895;28;20475;-82
2023/08/30 07:27:14;;;;;;;8.23;7.50;;;14.70;81.70;;;;;;5057165;28;20102;-79
2023/08/30 07:29:40;;;;;;;6.68;5.60;;;14.90;80.30;;;;;;5052247;28;20128;-82
2023/08/30 07:32:06;;;;;;;9.48;6.10;;;15.30;81.80;;;;;;5052307;28;20025;-81
2023/08/30 07:34:32;;;;;;;9.88;5.70;;;15.60;79.00;;;;;;5053114;28;20021;-76
2023/08/30 07:36:58;;;;;;;5.47;4.22;;;15.80;77.90;;;;;;5055587;28;20074;-73
2023/08/30 07:39:23;;;;;;;4.80;4.20;;;15.90;75.60;;;;;;5055324;28;20032;-72
2023/08/30 07:41:49;;;;;;;3.80;3.50;;;16.00;75.30;;;;;;5055261;28;20021;-71
2023/08/30 07:44:16;;;;;;;4.20;3.58;;;16.00;74.20;;;;;;5054164;28;20478;-76
2023/08/30 07:46:41;;;;;;;4.07;3.33;;;15.90;74.10;;;;;;5055418;28;20116;-74
2023/08/30 07:49:07;;;;;;;5.03;3.67;;;15.80;74.40;;;;;;5055001;28;20482;-74
2023/08/30 07:51:32;;;;;;;5.97;3.20;;;15.80;74.50;;;;;;5055143;28;20391;-74
2023/08/30 07:53:58;;;;;;;4.63;3.58;;;15.90;74.40;;;;;;5055045;28;20057;-74
2023/08/30 07:56:24;;;;;;;3.30;3.10;;;16.00;74.50;;;;;;5055124;28;20095;-74
2023/08/30 07:58:49;;;;;;;3.75;3.10;;;16.00;73.60;;;;;;5055274;28;20494;-75
2023/08/30 08:01:15;;;;;;;3.00;2.70;;;16.00;73.90;;;;;;5053851;28;20029;-75
2023/08/30 08:03:41;;;;;;;3.15;2.90;;;16.10;74.00;;;;;;5055068;28;20018;-76
2023/08/30 08:06:06;;;;;;;3.67;2.65;;;16.20;73.60;;;;;;5054893;28;20029;-76
2023/08/30 08:08:32;;;;;;;3.85;2.83;;;16.30;72.70;;;;;;5053471;28;20390;-75
2023/08/30 08:10:59;;;;;;;3.83;2.63;;;16.40;72.70;;;;;;5054691;28;20062;-75
2023/08/30 08:13:25;;;;;;;2.58;2.38;;;16.50;72.00;;;;;;5054799;28;20071;-75
2023/08/30 08:15:50;;;;;;;4.20;2.83;;;16.70;72.10;;;;;;5054822;28;20422;-74
2023/08/30 08:18:16;;;;;;;7.03;3.75;;;16.90;71.20;;;;;;5054797;28;20036;-74
2023/08/30 08:20:43;;;;;;;5.18;3.63;;;16.90;71.30;;;;;;5054449;28;20494;-75
2023/08/30 08:23:08;;;;;;;4.10;3.10;;;17.10;71.20;;;;;;5054522;28;20108;-76
2023/08/30 08:25:34;;;;;;;3.70;3.08;;;17.00;71.70;;;;;;5054245;28;20060;-76
2023/08/30 08:27:59;;;;;;;5.43;2.78;;;17.00;71.60;;;;;;5054029;28;20056;-74
2023/08/30 08:30:25;;;;;;;3.78;3.10;;;17.10;71.70;;;;;;5053059;28;20017;-74
2023/08/30 08:32:50;;;;;;;6.25;3.10;;;17.10;71.40;;;;;;5054498;28;20025;-74
2023/08/30 08:35:16;;;;;;;4.35;2.63;;;17.10;70.80;;;;;;5054592;28;20067;-74
2023/08/30 08:37:42;;;;;;;3.88;2.72;;;17.10;71.30;;;;;;5054713;28;20032;-73
2023/08/30 08:40:10;;;;;;;3.42;2.92;;;17.20;71.20;;;;;;5053893;28;20017;-75
2023/08/30 08:42:36;;;;;;;4.07;3.10;;;17.30;70.80;;;;;;5054055;28;20018;-74
2023/08/30 08:45:04;;;;;;;4.32;2.30;;;17.10;69.50;;;;;;5053956;28;20021;-75
2023/08/30 08:47:32;;;;;;;2.70;2.10;;;17.20;69.20;;;;;;5057645;28;20112;-75
2023/08/30 08:49:59;;;;;;;3.95;2.50;;;17.30;69.00;;;;;;5053748;28;20021;-75
2023/08/30 08:52:24;;;;;;;3.20;2.22;;;17.50;69.20;;;;;;5053661;28;20021;-75
2023/08/30 08:54:51;;;;;;;4.28;3.20;;;17.60;68.40;;;;;;5053393;28;20017;-75
2023/08/30 08:57:17;;;;;;;4.25;2.63;;;17.60;67.60;;;;;;5053686;28;20021;-74
2023/08/30 08:59:43;;;;;;;3.40;2.70;;;17.50;68.50;;;;;;5053533;28;20108;-74
2023/08/30 09:02:13;;;;;;;2.95;2.13;;;17.50;69.80;;;;;;5053529;28;20021;-75
2023/08/30 09:04:39;;;;;;;2.58;2.38;;;17.80;70.00;;;;;;5050936;28;20046;-75
2023/08/30 09:07:05;;;;;;;2.53;2.33;;;18.00;68.20;;;;;;5053285;28;20082;-74
2023/08/30 09:09:31;;;;;;;4.25;2.60;;;18.10;67.50;;;;;;5053343;28;20034;-74
2023/08/30 09:11:56;;;;;;;3.95;2.38;;;18.20;65.50;;;;;;5050483;28;20024;-73
2023/08/30 09:14:22;;;;;;;3.85;2.90;;;18.20;66.30;;;;;;5053489;28;20413;-74
2023/08/30 09:17:14;;;;;;;2.67;2.47;;;18.10;65.10;;;;;;5053271;28;20025;-73
2023/08/30 09:19:39;;;;;;;3.35;2.35;;;18.00;66.20;;;;;;5050270;28;20036;-74
2023/08/30 09:22:05;;;;;;;2.67;2.47;;;18.00;65.00;;;;;;5053175;28;20375;-74
2023/08/30 09:24:40;;;;;;;4.32;2.50;;;18.20;64.80;;;;;;5053236;28;20044;-75
2023/08/30 09:27:06;;;;;;;3.85;1.95;;;18.20;61.70;;;;;;5051426;28;20378;-75
2023/08/30 09:29:32;;;;;;;2.08;1.75;;;18.30;61.20;;;;;;5053224;28;20045;-75
2023/08/30 09:31:58;;;;;;;4.63;2.33;;;18.50;62.10;;;;;;5052659;28;20455;-76
2023/08/30 09:34:27;;;;;;;3.15;2.42;;;18.70;61.70;;;;;;5052924;28;20025;-74
2023/08/30 09:36:54;;;;;;;3.35;2.38;;;18.80;60.70;;;;;;5052849;28;20573;-76
2023/08/30 09:39:19;;;;;;;2.10;1.85;;;18.60;60.20;;;;;;5053265;28;20029;-75
2023/08/30 09:41:47;;;;;;;2.85;1.83;;;18.50;60.30;;;;;;5054835;28;20475;-75
2023/08/30 09:44:14;;;;;;;2.47;2.00;;;18.50;59.70;;;;;;5052761;28;20467;-76
2023/08/30 09:46:46;;;;;;;3.00;1.58;;;18.70;61.80;;;;;;5052373;28;20029;-75
2023/08/30 09:49:13;;;;;;;6.63;1.50;;;18.90;60.60;;;;;;5052437;28;20025;-74
2023/08/30 09:51:43;;;;;;;3.33;1.63;;;19.00;58.50;;;;;;5053035;28;20028;-73
2023/08/30 09:54:23;;;;;;;2.17;2.00;;;19.10;58.90;;;;;;5052744;28;20104;-73
2023/08/30 09:56:52;;;;;;;1.48;1.35;;;19.10;56.90;;;;;;5052934;28;20051;-74
2023/08/30 09:59:18;;;;;;;2.28;1.52;;;19.10;57.30;;;;;;5052506;28;20083;-73
2023/08/30 10:01:46;;;;;;;2.75;1.67;;;19.00;56.80;;;;;;5052507;28;20482;-73
2023/08/30 10:04:12;;;;;;;2.00;1.60;;;18.90;54.30;;;;;;5051194;28;20470;-76
2023/08/30 10:06:38;;;;;;;2.58;2.08;;;18.90;52.40;;;;;;5056635;28;20021;-75
2023/08/30 10:09:07;;;;;;;1.70;1.58;;;19.00;54.20;;;;;;5055943;28;20521;-75
2023/08/30 10:11:35;;;;;;;1.63;1.38;;;19.00;52.80;;;;;;5059513;28;20021;-74
2023/08/30 10:14:03;;;;;;;2.25;2.03;;;19.30;53.90;;;;;;5056713;28;20031;-74
2023/08/30 10:16:36;;;;;;;2.45;1.65;;;19.50;51.80;;;;;;5054201;28;20037;-74
2023/08/30 10:19:07;;;;;;;2.35;1.60;;;19.70;50.30;;;;;;5052297;28;20060;-75
2023/08/30 10:21:35;;;;;;;2.05;1.80;;;20.10;51.20;;;;;;5051413;28;20021;-76
2023/08/30 10:24:03;;;;;;;3.35;1.80;;;20.50;50.00;;;;;;5052974;28;20017;-74
2023/08/30 10:26:29;;;;;;;2.15;1.60;;;20.50;49.10;;;;;;5052953;28;20429;-77
2023/08/30 10:28:56;;;;;;;1.75;1.60;;;20.40;48.40;;;;;;5052025;28;20414;-76
2023/08/30 10:31:22;;;;;;;2.60;1.60;;;20.60;48.40;;;;;;5051935;28;20036;-77
2023/08/30 10:33:54;;;;;;;1.63;1.52;;;20.60;48.70;;;;;;5051880;28;20475;-76
2023/08/30 10:36:26;;;;;;;2.75;1.55;;;20.60;47.80;;;;;;5052245;28;20024;-75
2023/08/30 10:38:55;;;;;;;2.10;1.90;;;20.60;47.90;;;;;;5051846;28;20043;-76
2023/08/30 10:41:25;;;;;;;2.63;1.70;;;20.50;48.10;;;;;;5052065;28;20029;-74
2023/08/30 10:43:52;;;;;;;3.40;2.15;;;20.60;47.50;;;;;;5052131;28;20013;-74
2023/08/30 10:46:33;;;;;;;3.40;1.58;;;20.60;47.60;;;;;;5052363;28;20021;-71
2023/08/30 10:49:11;;;;;;;3.65;1.65;;;20.40;48.30;;;;;;5052465;28;20497;-73
2023/08/30 10:51:38;;;;;;;2.50;1.98;;;20.20;49.70;;;;;;5050906;28;20383;-73
2023/08/30 10:54:15;;;;;;;1.98;1.70;;;20.40;46.80;;;;;;5052886;28;20021;-74
2023/08/30 10:56:59;;;;;;;3.10;1.60;;;20.60;45.90;;;;;;5052270;28;20470;-75
2023/08/30 10:59:25;;;;;;;3.30;1.58;;;20.70;47.20;;;;;;5052260;28;20364;-74
2023/08/30 11:01:52;;;;;;;2.10;2.00;;;20.70;46.20;;;;;;5051829;28;20079;-77
2023/08/30 11:04:18;;;;;;;55.08;40.58;;;20.50;46.40;;;;;;5051707;28;20033;-74
2023/08/30 11:06:45;;;;;;;3.90;2.30;;;20.60;46.20;;;;;;5051907;28;20474;-74
2023/08/30 11:09:14;;;;;;;3.00;2.08;;;20.40;45.10;;;;;;5051802;28;20064;-74
2023/08/30 11:11:40;;;;;;;3.80;1.83;;;20.10;44.90;;;;;;5053888;28;20021;-74
2023/08/30 11:14:09;;;;;;;6.25;2.85;;;20.10;46.50;;;;;;5055254;28;20025;-74
2023/08/30 11:16:35;;;;;;;3.17;2.45;;;19.90;48.20;;;;;;5052879;28;20521;-74
2023/08/30 11:19:03;;;;;;;3.10;2.20;;;19.70;48.50;;;;;;5055223;28;20020;-74
2023/08/30 11:21:30;;;;;;;2.42;1.70;;;19.40;47.50;;;;;;5055297;28;20478;-74
2023/08/30 11:23:56;;;;;;;3.45;2.40;;;19.50;49.40;;;;;;5054127;28;20351;-74
2023/08/30 11:26:21;;;;;;;2.95;2.65;;;19.60;49.70;;;;;;5054758;28;20083;-74
2023/08/30 11:28:48;;;;;;;2.55;1.83;;;19.70;50.00;;;;;;5053559;28;20600;-73
2023/08/30 11:31:27;;;;;;;3.65;2.20;;;19.70;50.10;;;;;;5055210;28;20056;-71
2023/08/30 11:33:55;;;;;;;2.42;1.85;;;19.90;51.10;;;;;;5055416;28;20032;-72
2023/08/30 11:36:22;;;;;;;2.17;1.70;;;20.20;48.20;;;;;;5055259;28;20033;-72
2023/08/30 11:38:50;;;;;;;3.08;1.65;;;20.50;47.40;;;;;;5053955;28;20099;-71
2023/08/30 11:41:17;;;;;;;3.75;1.88;;;20.70;47.20;;;;;;5054866;28;20024;-72
2023/08/30 11:43:43;;;;;;;3.83;1.75;;;20.70;46.90;;;;;;5054966;28;20028;-72
2023/08/30 11:46:09;;;;;;;2.10;1.95;;;20.90;47.20;;;;;;5053504;28;20040;-72
2023/08/30 11:48:35;;;;;;;3.00;1.75;;;20.90;47.30;;;;;;5054411;28;20120;-72
2023/08/30 11:51:02;;;;;;;2.20;1.80;;;20.50;47.90;;;;;;5054927;28;20032;-73
2023/08/30 11:53:28;;;;;;;3.83;1.92;;;20.20;48.20;;;;;;5054730;28;20528;-72
2023/08/30 11:55:54;;;;;;;3.47;2.47;;;20.20;49.60;;;;;;5054620;28;20032;-75
2023/08/30 11:58:20;;;;;;;4.03;2.17;;;19.50;55.10;;;;;;5072178;28;20028;-75
2023/08/30 12:00:46;;;;;;;2.60;2.40;;;18.30;61.10;;;;;;5073523;28;20116;-72
2023/08/30 12:03:15;;;;;;;2.80;2.17;;;17.90;59.10;;;;;;5054442;28;20071;-73
2023/08/30 12:05:48;;;;;;;2.28;1.90;;;17.20;62.80;;;;;;5053461;28;20106;-74
2023/08/30 12:08:35;;;;;;;2.10;1.90;;;16.90;62.10;;;;;;5053564;28;20033;-74
2023/08/30 12:11:01;;;;;;;3.45;1.98;;;16.50;65.30;;;;;;5053784;28;20028;-74
2023/08/30 12:13:30;;;;;;;2.60;2.40;;;16.10;67.00;;;;;;5054490;28;20033;-74
2023/08/30 12:15:57;;;;;;;3.58;2.95;;;16.10;69.70;;;;;;5072644;28;20497;-73
2023/08/30 12:18:24;;;;;;;5.68;3.30;;;15.90;72.10;;;;;;5074047;28;20028;-73
2023/08/30 12:21:00;;;;;;;4.95;2.83;;;15.90;73.10;;;;;;5074286;28;20021;-72
2023/08/30 12:23:27;;;;;;;3.83;3.20;;;15.90;72.90;;;;;;5074473;28;20032;-74
2023/08/30 12:26:06;;;;;;;3.25;2.80;;;16.00;72.50;;;;;;5074488;28;20021;-74
2023/08/30 12:28:35;;;;;;;2.50;2.30;;;16.10;72.50;;;;;;5074174;28;20552;-74
2023/08/30 12:31:01;;;;;;;2.55;2.13;;;16.30;70.80;;;;;;5074155;28;20031;-73
2023/08/30 12:33:30;;;;;;;2.45;2.13;;;16.50;68.30;;;;;;5064510;28;20688;-72
2023/08/30 12:35:56;;;;;;;1.55;1.45;;;16.40;68.90;;;;;;5054094;28;20040;-73
2023/08/30 12:38:22;;;;;;;2.05;1.50;;;16.60;66.80;;;;;;5054266;28;20509;-73